Time;durP1;ratioP1;P1;durP2;ratioP2;P2;SDS_P1;SDS_P2;PMS_P1;PMS_P2;Temp;Humidity;BMP_temperature;BMP_pressure;BME280_temperature;BME280_humidity;BME280_pressure;Samples;Min_cycle;Max_cycle;Signal;HPM_P1;HPM_P2
2023/05/11 02:26:52;;;;;;;0.10;0.10;;;;;;;9.74;92.00;100271.09;6148827;23;20070;-78
2023/05/11 04:57:39;;;;;;;0.00;0.00;;;;;;;9.39;95.30;100247.94;6146619;23;20013;-78
2023/05/11 05:00:53;;;;;;;0.00;0.00;;;;;;;9.45;95.52;100252.34;6056456;23;20525;-78
2023/05/11 05:15:02;;;;;;;;;;;;;;;;;;;;;
2023/05/11 05:29:01;;;;;;;0.00;0.00;;;;;;;10.04;94.23;100303.19;6004902;23;20032;-79
2023/05/11 05:31:58;;;;;;;0.00;0.00;;;;;;;10.04;94.19;100294.19;5939664;23;20013;-78
2023/05/11 05:34:45;;;;;;;0.00;0.00;;;;;;;10.05;93.88;100282.19;5853085;24;20030;-79
2023/05/11 05:41:01;;;;;;;;;;;;;;;10.31;94.01;100302.25;6006302;23;20067;-77
2023/05/11 05:44:26;;;;;;;0.00;0.00;;;;;;;10.39;93.26;100298.19;5974780;23;19907;-78
2023/05/11 06:12:36;;;;;;;0.00;0.00;;;;;;;10.92;90.19;100285.22;6200291;23;20370;-79
2023/05/11 06:18:21;;;;;;;0.00;0.00;;;;;;;11.07;88.46;100286.28;6210487;23;20242;-81
2023/05/11 06:26:42;;;;;;;0.00;0.00;;;;;;;11.34;87.77;100311.47;6189233;23;20030;-80
2023/05/11 06:29:28;;;;;;;;;;;;;;;;;;;;;
2023/05/11 06:31:57;;;;;;;0.00;0.00;;;;;;;11.37;87.12;100295.63;6192524;23;20028;-79
2023/05/11 06:34:30;;;;;;;0.00;0.00;;;;;;;11.62;86.82;100320.25;6211592;22;20005;-78
2023/05/11 06:37:25;;;;;;;0.00;0.00;;;;;;;11.81;86.22;100330.63;6212579;23;20008;-79
2023/05/11 06:40:02;;;;;;;0.00;0.00;;;;;;;11.63;85.31;100293.69;6213872;23;20012;-78
2023/05/11 06:43:07;;;;;;;0.00;0.00;;;;;;;11.79;85.35;100302.69;6206698;22;20004;-78
2023/05/11 06:46:27;;;;;;;0.00;0.00;;;;;;;12.14;84.48;100336.63;6209307;22;20012;-80
2023/05/11 06:56:43;;;;;;;0.00;0.00;;;;;;;12.79;81.54;100311.94;6159821;23;20012;-79
2023/05/11 06:59:32;;;;;;;0.00;0.00;;;;;;;12.86;80.08;100289.63;6137807;23;20483;-78
2023/05/11 07:06:42;;;;;;;;;;;;;;;;;;;;;
2023/05/11 07:16:02;;;;;;;;;;;;;;;;;;;;;
2023/05/11 07:21:25;;;;;;;0.00;0.00;;;;;;;14.30;74.48;100327.63;5992122;23;20004;-80
2023/05/11 07:24:33;;;;;;;;;;;;;;;;;;;;;
2023/05/11 07:27:10;;;;;;;0.00;0.00;;;;;;;14.81;72.62;100345.44;6093233;23;20085;-77
2023/05/11 07:30:34;;;;;;;;;;;;;;;;;;;;;
2023/05/11 07:34:01;;;;;;;0.00;0.00;;;;;;;15.34;70.65;100349.09;6206741;23;21028;-77
2023/05/11 07:36:40;;;;;;;;;;;;;;;;;;;;;
2023/05/11 08:48:39;;;;;;;;;;;;;;;;;;;;;
2023/05/11 08:59:08;;;;;;;;;;;;;;;;;;;;;
2023/05/11 09:02:33;;;;;;;0.00;0.00;;;;;;;20.25;47.23;100330.66;5913318;23;20084;-77
2023/05/11 09:31:54;;;;;;;;;;;;;;;;;;;;;
2023/05/11 09:34:41;;;;;;;0.00;0.00;;;;;;;25.35;43.11;100374.78;5996533;23;20064;-78
2023/05/11 09:37:36;;;;;;;0.00;0.00;;;;;;;26.38;38.52;100357.50;6009553;23;20042;-75
2023/05/11 09:40:24;;;;;;;0.00;0.00;;;;;;;26.15;38.82;100393.94;6009044;23;20008;-78
2023/05/11 09:43:02;;;;;;;0.00;0.00;;;;;;;25.02;39.68;100379.69;6038939;23;20019;-77
2023/05/11 09:46:14;;;;;;;0.00;0.00;;;;;;;23.67;39.80;100361.91;6070961;23;20325;-76
2023/05/11 09:48:56;;;;;;;0.00;0.00;;;;;;;22.92;41.43;100360.53;6082822;23;20117;-77
2023/05/11 09:52:02;;;;;;;0.00;0.00;;;;;;;21.97;42.56;100353.06;6069498;23;20046;-76
2023/05/11 09:54:47;;;;;;;0.00;0.00;;;;;;;21.36;42.59;100376.72;6050931;23;20344;-76
2023/05/11 10:40:49;;;;;;;;;;;;;;;;;;;;;
2023/05/11 10:44:16;;;;;;;0.00;0.00;;;;;;;20.16;48.29;100347.38;6118189;23;20086;-79
2023/05/11 10:51:01;;;;;;;;;;;;;;;;;;;;;
2023/05/11 10:54:36;;;;;;;;;;;;;;;;;;;;;
2023/05/11 12:07:02;;;;;;;0.00;0.00;;;;;;;25.05;32.28;100295.03;5841109;24;20075;-79
2023/05/11 12:10:29;;;;;;;0.00;0.00;;;;;;;25.37;31.82;100338.88;5860517;24;20018;-78
2023/05/11 12:20:20;;;;;;;0.00;0.00;;;;;;;24.67;32.42;100323.75;5979148;23;20016;-76
2023/05/11 12:23:13;;;;;;;0.00;0.00;;;;;;;24.26;32.18;100312.00;6010057;23;20011;-77
2023/05/11 12:27:16;;;;;;;;;;;;;;;;;;;;;
2023/05/11 12:37:49;;;;;;;;;;;;;;;;;;;;;
2023/05/11 12:50:56;;;;;;;0.00;0.00;;;;;;;25.06;33.20;100351.78;5899043;24;20461;-77
2023/05/11 12:53:35;;;;;;;;;;;;;;;;;;;;;
2023/05/11 12:56:26;;;;;;;0.00;0.00;;;;;;;25.75;31.71;100317.59;5944116;23;20099;-78
2023/05/11 12:59:04;;;;;;;;;;;;;;;;;;;;;
2023/05/11 13:01:44;;;;;;;0.00;0.00;;;;;;;26.78;31.06;100319.69;6154700;23;20028;-78
2023/05/11 13:04:22;;;;;;;;;;;;;;;;;;;;;
2023/05/11 13:06:58;;;;;;;0.00;0.00;;;;;;;28.25;27.88;100298.03;6188391;23;20091;-78
2023/05/11 13:09:25;;;;;;;0.00;0.00;;;;;;;29.29;27.70;100319.56;6208907;23;20058;-78
2023/05/11 13:12:16;;;;;;;0.00;0.00;;;;;;;32.11;25.37;100344.03;6206143;23;20008;-78
2023/05/11 13:15:27;;;;;;;0.00;0.00;;;;;;;39.40;18.08;100319.50;6182423;23;20005;-79
2023/05/11 13:18:36;;;;;;;0.00;0.00;;;;;;;38.36;15.73;100309.88;6208986;23;20115;-77
2023/05/11 13:21:32;;;;;;;0.00;0.00;;;;;;;35.86;18.69;100312.66;6209828;23;20004;-77
2023/05/11 13:23:58;;;;;;;0.00;0.00;;;;;;;38.41;18.61;100320.72;6206063;23;20000;-78
2023/05/11 13:42:44;;;;;;;0.00;0.00;;;;;;;42.24;14.56;100303.09;6222843;23;20049;-78
2023/05/11 13:45:10;;;;;;;0.00;0.00;;;;;;;46.35;12.95;100298.53;6220640;23;20020;-79
2023/05/11 13:47:48;;;;;;;0.00;0.00;;;;;;;50.61;10.89;100292.84;6206770;23;20004;-78
2023/05/11 13:50:14;;;;;;;0.00;0.00;;;;;;;52.30;8.93;100275.72;6206964;23;20012;-78
2023/05/11 13:52:43;;;;;;;0.00;0.00;;;;;;;50.64;8.24;100276.41;6211463;23;20008;-79
2023/05/11 13:55:08;;;;;;;0.00;0.00;;;;;;;46.27;9.55;100262.81;6222663;22;20004;-79
2023/05/11 13:57:34;;;;;;;0.00;0.00;;;;;;;42.77;12.13;100241.16;6172946;23;20008;-79
2023/05/11 14:00:02;;;;;;;0.00;0.00;;;;;;;44.19;12.07;100246.97;6197886;22;20012;-79
2023/05/11 14:02:30;;;;;;;0.00;0.00;;;;;;;47.51;11.03;100259.22;6219121;22;20007;-81
2023/05/11 14:04:55;;;;;;;0.00;0.00;;;;;;;47.87;10.95;100273.88;6222509;23;20010;-79
2023/05/11 14:07:41;;;;;;;0.00;0.00;;;;;;;44.19;11.17;100252.75;6222018;23;20052;-79
2023/05/11 14:10:18;;;;;;;0.00;0.00;;;;;;;43.69;12.60;100226.94;6216957;22;20029;-79
2023/05/11 14:12:53;;;;;;;0.00;0.00;;;;;;;44.61;10.56;100234.09;6211026;22;20009;-78
2023/05/11 14:15:18;;;;;;;0.00;0.00;;;;;;;42.24;11.30;100244.84;6202992;23;20073;-79
2023/05/11 14:17:44;;;;;;;0.00;0.00;;;;;;;43.22;11.90;100244.81;6203602;23;20099;-81
2023/05/11 14:20:16;;;;;;;0.00;0.00;;;;;;;41.20;12.87;100245.88;6176474;23;20012;-79
2023/05/11 14:22:42;;;;;;;0.00;0.00;;;;;;;39.09;13.69;100243.09;6182182;22;20009;-79
2023/05/11 14:25:08;;;;;;;0.00;0.00;;;;;;;41.73;12.80;100247.38;6205036;23;20015;-78
2023/05/11 14:27:35;;;;;;;0.00;0.00;;;;;;;43.51;11.13;100240.31;6178138;23;20565;-80
2023/05/11 14:30:01;;;;;;;0.00;0.00;;;;;;;44.15;10.66;100252.16;6203170;23;20042;-80
2023/05/11 14:32:26;;;;;;;0.00;0.00;;;;;;;45.21;9.89;100265.31;6200397;22;20008;-79
2023/05/11 14:34:52;;;;;;;0.00;0.00;;;;;;;46.03;9.87;100237.19;6152764;23;20032;-78
2023/05/11 14:37:17;;;;;;;0.00;0.00;;;;;;;47.15;9.37;100261.88;6179499;23;20005;-80
2023/05/11 14:39:52;;;;;;;0.00;0.00;;;;;;;47.88;8.62;100241.47;6154048;23;20103;-80
2023/05/11 14:42:18;;;;;;;0.00;0.00;;;;;;;49.59;8.55;100259.28;6202359;22;20044;-81
2023/05/11 14:44:46;;;;;;;0.00;0.00;;;;;;;49.60;8.40;100236.81;6202198;23;20058;-80
2023/05/11 14:47:14;;;;;;;0.00;0.00;;;;;;;48.81;8.94;100240.44;6153911;23;20054;-80
2023/05/11 14:49:40;;;;;;;0.00;0.00;;;;;;;50.05;9.22;100236.25;6201441;23;20008;-80
2023/05/11 14:52:43;;;;;;;0.00;0.00;;;;;;;49.44;7.84;100224.03;6204148;23;20005;-80
2023/05/11 15:06:11;;;;;;;0.00;0.00;;;;;;;33.44;16.09;100227.69;5994421;23;20012;-81
2023/05/11 15:08:45;;;;;;;0.00;0.00;;;;;;;29.99;18.95;100192.47;5942837;24;20008;-77
2023/05/11 15:11:11;;;;;;;0.00;0.00;;;;;;;28.42;20.27;100172.84;5974733;24;20132;-78
2023/05/11 15:13:40;;;;;;;0.00;0.00;;;;;;;28.15;20.60;100191.94;5849464;23;20010;-81
2023/05/11 15:16:05;;;;;;;0.00;0.00;;;;;;;27.96;20.53;100219.09;6022050;23;20004;-81
2023/05/11 15:18:35;;;;;;;0.00;0.00;;;;;;;27.03;23.31;100206.97;6199432;23;20031;-81
2023/05/11 15:21:03;;;;;;;0.00;0.00;;;;;;;26.28;24.04;100224.41;6178671;22;20135;-81
2023/05/11 15:23:28;;;;;;;0.00;0.00;;;;;;;26.02;23.90;100205.63;6155269;23;20009;-81
2023/05/11 15:25:57;;;;;;;0.00;0.00;;;;;;;25.52;26.05;100223.19;6203258;23;20783;-79
2023/05/11 15:28:29;;;;;;;0.00;0.00;;;;;;;24.31;30.38;100227.88;6202832;22;20019;-80
2023/05/11 15:30:54;;;;;;;0.00;0.00;;;;;;;23.16;31.91;100232.19;6200530;23;20015;-79
2023/05/11 15:33:25;;;;;;;0.00;0.00;;;;;;;22.19;33.88;100206.19;6152221;23;20115;-79
2023/05/11 15:35:50;;;;;;;0.00;0.00;;;;;;;21.72;35.41;100232.53;6201926;23;20372;-82
2023/05/11 15:38:16;;;;;;;0.00;0.00;;;;;;;21.06;38.42;100218.34;6177600;23;20025;-80
2023/05/11 15:40:42;;;;;;;0.00;0.00;;;;;;;20.70;39.29;100235.66;6176902;22;20020;-80
2023/05/11 15:43:07;;;;;;;0.00;0.00;;;;;;;20.18;41.14;100232.06;6202890;22;20013;-80
2023/05/11 15:45:33;;;;;;;0.00;0.00;;;;;;;19.75;42.64;100255.25;6180290;22;20040;-80
2023/05/11 15:48:01;;;;;;;0.00;0.00;;;;;;;18.95;43.55;100216.97;6151750;23;20480;-80
2023/05/11 15:50:26;;;;;;;0.00;0.00;;;;;;;18.66;44.78;100235.84;6204849;23;20008;-81
2023/05/11 15:52:52;;;;;;;0.00;0.00;;;;;;;18.55;45.31;100242.84;6180012;23;20039;-80
2023/05/11 15:55:17;;;;;;;0.00;0.00;;;;;;;18.46;45.64;100258.66;6202530;22;20011;-80
2023/05/11 15:57:45;;;;;;;0.00;0.00;;;;;;;18.16;45.90;100246.53;6178515;23;20427;-81
2023/05/11 16:00:13;;;;;;;0.00;0.00;;;;;;;17.99;46.80;100263.88;6202279;22;20001;-80
2023/05/11 16:02:39;;;;;;;0.00;0.00;;;;;;;17.66;46.91;100262.25;6179210;22;20012;-80
2023/05/11 16:05:04;;;;;;;0.00;0.00;;;;;;;17.54;46.86;100287.72;6176582;23;20067;-80
2023/05/11 16:07:30;;;;;;;0.00;0.00;;;;;;;17.30;47.54;100281.72;6177497;22;20047;-81
2023/05/11 16:09:55;;;;;;;0.00;0.00;;;;;;;17.07;49.61;100290.00;6155416;23;20091;-81
2023/05/11 16:12:21;;;;;;;0.00;0.00;;;;;;;16.78;50.43;100285.69;6175316;22;20073;-79
2023/05/11 16:14:46;;;;;;;0.00;0.00;;;;;;;16.55;50.41;100307.69;6179140;23;20008;-78
2023/05/11 16:17:12;;;;;;;0.00;0.00;;;;;;;16.33;51.92;100310.38;6178331;22;20008;-78
2023/05/11 16:19:37;;;;;;;0.00;0.00;;;;;;;16.00;52.78;100318.75;6204589;23;20335;-79
2023/05/11 16:22:03;;;;;;;0.00;0.00;;;;;;;15.68;51.16;100317.66;6176688;23;20415;-80
2023/05/11 16:24:32;;;;;;;0.00;0.00;;;;;;;15.43;52.57;100313.41;6205263;23;20012;-79
2023/05/11 16:27:00;;;;;;;0.00;0.00;;;;;;;15.19;53.81;100306.06;6202724;22;20004;-80
2023/05/11 16:29:28;;;;;;;0.00;0.00;;;;;;;14.96;54.65;100319.63;6179642;22;20013;-80
2023/05/11 16:31:54;;;;;;;0.00;0.00;;;;;;;14.67;55.20;100306.00;6179841;23;20032;-79
2023/05/11 16:34:49;;;;;;;0.00;0.00;;;;;;;14.36;54.32;100289.06;6176900;22;20011;-79
2023/05/11 16:37:16;;;;;;;0.00;0.00;;;;;;;14.25;55.04;100293.88;6202471;23;20000;-80
2023/05/11 16:39:44;;;;;;;0.00;0.00;;;;;;;14.07;55.45;100296.28;6154351;23;20012;-78
2023/05/11 16:42:10;;;;;;;0.00;0.00;;;;;;;13.90;57.04;100302.25;6177394;22;20107;-77
2023/05/11 16:44:55;;;;;;;0.00;0.00;;;;;;;13.70;58.09;100300.53;6173130;22;20043;-77
2023/05/11 16:47:24;;;;;;;0.00;0.00;;;;;;;13.48;59.45;100300.16;6201888;23;20016;-78
2023/05/11 16:49:54;;;;;;;0.00;0.00;;;;;;;13.34;61.13;100284.34;6177565;23;20009;-78
2023/05/11 16:52:20;;;;;;;0.00;0.00;;;;;;;13.43;61.84;100312.03;6203980;23;20000;-78
2023/05/11 16:54:53;;;;;;;0.00;0.00;;;;;;;13.27;63.05;100308.56;6201329;23;20056;-78
2023/05/11 16:57:18;;;;;;;0.00;0.00;;;;;;;13.18;63.03;100310.28;6203526;22;20569;-77
2023/05/11 16:59:53;;;;;;;0.00;0.00;;;;;;;12.99;64.54;100291.75;6176802;23;20044;-76
2023/05/11 17:02:19;;;;;;;0.00;0.00;;;;;;;12.98;65.47;100311.25;6201670;22;20035;-77
2023/05/11 17:04:45;;;;;;;0.00;0.00;;;;;;;12.74;66.69;100296.28;6175924;22;20012;-78
2023/05/11 17:07:13;;;;;;;0.00;0.00;;;;;;;12.95;66.84;100328.28;6175370;23;20057;-77
2023/05/11 17:09:41;;;;;;;0.00;0.00;;;;;;;12.69;67.01;100304.56;6179304;22;20752;-77
2023/05/11 17:12:09;;;;;;;0.00;0.00;;;;;;;12.66;68.11;100315.28;6199474;22;20437;-78
2023/05/11 17:14:35;;;;;;;0.00;0.00;;;;;;;12.63;68.18;100326.81;6202883;22;20013;-78
2023/05/11 17:17:03;;;;;;;0.00;0.00;;;;;;;12.49;68.53;100316.47;6175496;22;20380;-76
2023/05/11 17:19:29;;;;;;;0.00;0.00;;;;;;;12.50;69.25;100333.72;6203350;22;20009;-77
2023/05/11 17:21:55;;;;;;;0.00;0.00;;;;;;;12.34;69.56;100317.34;6174894;23;20107;-78
2023/05/11 17:24:28;;;;;;;0.00;0.00;;;;;;;12.21;70.02;100315.22;6205329;23;20009;-78
2023/05/11 17:26:53;;;;;;;0.00;0.00;;;;;;;12.27;70.90;100329.72;6179093;22;20454;-78
2023/05/11 17:29:19;;;;;;;0.00;0.00;;;;;;;12.15;70.71;100321.78;6202009;22;20005;-79
2023/05/11 17:31:49;;;;;;;0.00;0.00;;;;;;;12.09;71.44;100321.00;6154259;23;20099;-77
2023/05/11 17:34:15;;;;;;;0.00;0.00;;;;;;;12.27;71.43;100351.66;6155380;23;20091;-78
2023/05/11 17:36:41;;;;;;;0.00;0.00;;;;;;;12.20;71.96;100346.47;6202981;22;20005;-77
2023/05/11 17:39:07;;;;;;;0.00;0.00;;;;;;;12.21;71.98;100342.63;6176162;22;20012;-78
2023/05/11 17:41:32;;;;;;;0.03;0.03;;;;;;;12.11;71.49;100331.69;6204864;22;20044;-78
2023/05/11 17:43:58;;;;;;;0.00;0.00;;;;;;;12.20;71.26;100335.50;6177466;22;20092;-78
2023/05/11 17:46:23;;;;;;;0.00;0.00;;;;;;;12.34;70.14;100352.19;6151016;23;20352;-78
2023/05/11 17:48:51;;;;;;;0.00;0.00;;;;;;;12.30;69.24;100340.94;6154061;23;20036;-78
2023/05/11 17:51:19;;;;;;;0.00;0.00;;;;;;;12.26;68.76;100328.06;6175374;23;20339;-78
2023/05/11 17:53:45;;;;;;;0.00;0.00;;;;;;;12.30;68.67;100335.47;6203867;23;20016;-82
2023/05/11 17:56:10;;;;;;;0.00;0.00;;;;;;;12.23;68.73;100329.44;6178618;22;20008;-81
2023/05/11 17:58:36;;;;;;;0.00;0.00;;;;;;;12.29;69.00;100338.47;6176127;23;20451;-78
2023/05/11 18:01:09;;;;;;;0.00;0.00;;;;;;;12.27;69.04;100347.00;6178340;23;20028;-78
2023/05/11 18:03:35;;;;;;;0.00;0.00;;;;;;;12.11;68.67;100337.19;6200637;22;20011;-78
2023/05/11 18:06:01;;;;;;;0.00;0.00;;;;;;;12.18;68.57;100354.97;6154202;23;20013;-78
2023/05/11 18:08:31;;;;;;;0.00;0.00;;;;;;;12.24;68.27;100358.50;6198691;23;20001;-82
2023/05/11 18:11:00;;;;;;;0.00;0.00;;;;;;;12.26;68.16;100367.28;6180996;23;20008;-82
2023/05/11 18:13:27;;;;;;;0.00;0.00;;;;;;;12.17;67.85;100347.03;6200720;22;20074;-79
2023/05/11 18:15:54;;;;;;;0.00;0.00;;;;;;;12.31;67.92;100364.53;6154055;23;20092;-80
2023/05/11 18:18:20;;;;;;;0.00;0.00;;;;;;;12.34;68.32;100366.72;6180093;23;20008;-78
2023/05/11 18:20:45;;;;;;;0.00;0.00;;;;;;;12.29;69.17;100361.22;6201976;23;20450;-79
2023/05/11 18:23:14;;;;;;;0.00;0.00;;;;;;;12.32;68.84;100373.56;6152872;23;20019;-78
2023/05/11 18:25:39;;;;;;;0.00;0.00;;;;;;;12.27;68.96;100368.91;6176122;22;20008;-79
2023/05/11 18:28:05;;;;;;;0.00;0.00;;;;;;;12.19;69.68;100347.56;6179809;23;20001;-79
2023/05/11 18:30:32;;;;;;;0.00;0.00;;;;;;;12.20;69.33;100349.19;6150049;23;20091;-78
2023/05/11 18:33:00;;;;;;;0.00;0.00;;;;;;;12.22;70.13;100364.28;6204838;23;20005;-77
2023/05/11 18:35:26;;;;;;;0.00;0.00;;;;;;;12.18;70.58;100365.13;6204885;22;20109;-78
2023/05/11 18:37:51;;;;;;;0.00;0.00;;;;;;;12.06;71.25;100368.13;6179155;22;20013;-78
2023/05/11 18:40:17;;;;;;;0.00;0.00;;;;;;;12.02;71.89;100367.88;6177728;22;20012;-78
2023/05/11 18:42:45;;;;;;;0.00;0.00;;;;;;;11.94;72.72;100376.66;6177074;22;20157;-79
2023/05/11 18:45:12;;;;;;;0.00;0.00;;;;;;;11.86;73.07;100379.94;6200291;23;20012;-78
2023/05/11 18:51:46;;;;;;;;;;;;;;;;;;;;;
2023/05/11 18:57:43;;;;;;;0.00;0.00;;;;;;;11.72;73.47;100411.72;6079306;23;20014;-79
2023/05/11 19:00:39;;;;;;;0.00;0.00;;;;;;;11.72;73.31;100411.72;6151337;23;20016;-78
2023/05/11 19:06:40;;;;;;;0.00;0.00;;;;;;;11.67;73.19;100383.22;6112096;23;20100;-78
2023/05/11 19:09:21;;;;;;;;;;;;;;;;;;;;;
2023/05/11 19:11:47;;;;;;;0.00;0.00;;;;;;;12.14;71.98;100425.16;6109727;23;20085;-77
2023/05/11 19:14:14;;;;;;;0.00;0.00;;;;;;;12.19;71.92;100405.13;6067166;23;20389;-78
2023/05/11 19:16:46;;;;;;;0.00;0.00;;;;;;;12.52;71.46;100449.47;6073630;23;20013;-78
2023/05/11 19:19:20;;;;;;;0.00;0.00;;;;;;;12.52;70.67;100438.50;6180511;23;20017;-76
2023/05/11 19:21:57;;;;;;;0.00;0.00;;;;;;;12.43;70.86;100419.06;6180376;23;20005;-77
2023/05/11 19:24:36;;;;;;;0.00;0.00;;;;;;;12.58;71.17;100446.44;6178203;23;20013;-78
2023/05/11 19:27:03;;;;;;;0.00;0.00;;;;;;;12.79;70.45;100478.47;6202183;23;20084;-77
2023/05/11 19:29:29;;;;;;;0.00;0.00;;;;;;;12.66;70.85;100458.78;6206113;23;20012;-77
2023/05/11 19:31:54;;;;;;;0.00;0.00;;;;;;;12.67;70.87;100468.63;6203311;23;20326;-78
2023/05/11 19:34:37;;;;;;;0.00;0.00;;;;;;;12.68;70.89;100470.28;6179733;23;20013;-78
2023/05/11 19:37:03;;;;;;;0.00;0.00;;;;;;;12.59;71.39;100463.72;6206346;23;20004;-77
2023/05/11 19:39:38;;;;;;;0.00;0.00;;;;;;;12.48;71.02;100460.16;6202775;23;20320;-79
2023/05/11 19:42:04;;;;;;;0.00;0.00;;;;;;;12.49;71.26;100461.81;6204860;22;20550;-77
2023/05/11 19:44:33;;;;;;;0.00;0.00;;;;;;;12.68;71.57;100486.72;6204826;23;20044;-80
2023/05/11 19:47:19;;;;;;;0.00;0.00;;;;;;;12.74;71.14;100471.91;6181776;23;20015;-79
2023/05/11 19:54:17;;;;;;;;;;;;;;;;;;;;;
2023/05/11 19:56:48;;;;;;;0.00;0.00;;;;;;;13.17;68.81;100500.84;6238912;23;20479;-78
2023/05/11 19:59:19;;;;;;;0.00;0.00;;;;;;;13.22;68.34;100506.31;6206952;22;20011;-78
2023/05/11 20:01:55;;;;;;;0.00;0.00;;;;;;;13.34;68.06;100523.28;6204958;22;20448;-79
2023/05/11 20:04:25;;;;;;;0.00;0.00;;;;;;;13.36;67.79;100521.09;6183783;22;20016;-78
2023/05/11 20:06:58;;;;;;;0.00;0.00;;;;;;;13.37;67.64;100525.47;6179660;23;20008;-76
2023/05/11 20:09:57;;;;;;;;;;;;;;;;;;;;;
2023/05/11 20:12:36;;;;;;;;;;;;;;;;;;;;;
2023/05/11 20:15:18;;;;;;;0.00;0.00;;;;;;;13.34;66.89;100501.31;6204859;23;20088;-77
2023/05/11 20:18:30;;;;;;;0.00;0.00;;;;;;;13.51;66.77;100544.13;6183679;22;20017;-77
2023/05/11 20:21:43;;;;;;;0.00;0.00;;;;;;;13.40;66.85;100533.19;6205066;23;20009;-80
2023/05/11 20:34:22;;;;;;;0.00;0.00;;;;;;;13.32;68.09;100541.97;6085114;23;20069;-79
2023/05/11 20:36:52;;;;;;;0.00;0.00;;;;;;;13.40;68.57;100560.66;6063130;23;20014;-76
2023/05/11 20:39:23;;;;;;;0.00;0.00;;;;;;;13.14;68.82;100545.31;6086862;23;20006;-78
2023/05/11 20:42:06;;;;;;;0.00;0.00;;;;;;;12.99;69.74;100538.78;6089081;23;20023;-78
2023/05/11 20:44:32;;;;;;;0.00;0.00;;;;;;;12.91;70.19;100542.94;6087654;23;20018;-79
2023/05/11 20:47:00;;;;;;;0.00;0.00;;;;;;;12.77;72.32;100535.56;6041389;23;20422;-77
2023/05/11 20:49:29;;;;;;;0.00;0.00;;;;;;;12.85;73.38;100560.50;6086684;23;20013;-78
2023/05/11 20:52:16;;;;;;;0.00;0.00;;;;;;;12.66;74.08;100541.06;6067414;23;20523;-80
2023/05/11 20:54:48;;;;;;;0.00;0.00;;;;;;;12.87;74.27;100587.69;6088863;23;20088;-78
2023/05/11 20:57:50;;;;;;;0.00;0.00;;;;;;;12.52;75.01;100540.81;6068086;23;20068;-76
2023/05/11 21:01:14;;;;;;;;;;;;;;;;;;;;;
2023/05/11 21:04:41;;;;;;;;;;;;;;;;;;;;;
2023/05/11 21:07:20;;;;;;;;;;;;;;;;;;;;;
2023/05/11 21:10:21;;;;;;;0.00;0.00;;;;;;;12.35;76.84;100563.06;6206969;23;20092;-79
2023/05/11 21:13:07;;;;;;;;;;;;;;;;;;;;;
2023/05/11 21:15:38;;;;;;;0.00;0.00;;;;;;;12.32;77.33;100580.03;6202432;23;20084;-79
2023/05/11 21:18:17;;;;;;;;;;;;;;;;;;;;;
2023/05/11 21:20:43;;;;;;;0.00;0.00;;;;;;;12.26;77.93;100572.91;6204204;23;20107;-80
2023/05/11 21:23:13;;;;;;;0.00;0.00;;;;;;;12.17;77.91;100566.34;6204405;22;20039;-83
2023/05/11 21:25:39;;;;;;;0.00;0.00;;;;;;;12.01;78.22;100560.81;6180245;23;20426;-80
2023/05/11 21:28:04;;;;;;;0.00;0.00;;;;;;;11.90;78.47;100555.56;6208732;23;19997;-79
2023/05/11 21:30:30;;;;;;;0.00;0.00;;;;;;;11.96;78.75;100582.75;6155806;23;20047;-79
2023/05/11 21:32:55;;;;;;;0.00;0.00;;;;;;;11.92;78.63;100576.13;6183974;23;20046;-79
2023/05/11 21:35:21;;;;;;;0.00;0.00;;;;;;;11.88;78.74;100577.75;6205268;22;20022;-80
2023/05/11 21:37:49;;;;;;;0.00;0.00;;;;;;;11.90;79.34;100583.81;6178188;23;20005;-82
2023/05/11 21:40:22;;;;;;;0.00;0.00;;;;;;;12.03;79.33;100602.50;6204268;23;20731;-82
2023/05/11 21:42:48;;;;;;;0.00;0.00;;;;;;;11.84;79.49;100579.41;6203329;22;20023;-80
2023/05/11 21:45:22;;;;;;;0.00;0.00;;;;;;;11.80;79.26;100578.31;6154735;22;20024;-82
2023/05/11 21:47:48;;;;;;;0.00;0.00;;;;;;;11.81;79.05;100578.03;6178140;23;20104;-81
2023/05/11 21:50:13;;;;;;;0.00;0.00;;;;;;;11.86;79.66;100591.75;6204824;23;20077;-80
2023/05/11 21:52:41;;;;;;;0.00;0.00;;;;;;;11.66;79.44;100567.84;6180546;23;20412;-82
2023/05/11 21:55:12;;;;;;;0.00;0.00;;;;;;;11.88;79.92;100602.44;6205294;22;19992;-81
2023/05/11 21:57:38;;;;;;;0.00;0.00;;;;;;;11.74;79.76;100573.88;6204861;23;20004;-80
2023/05/11 22:00:04;;;;;;;0.00;0.00;;;;;;;11.77;80.11;100587.03;6179000;23;20224;-79
2023/05/11 22:02:31;;;;;;;0.00;0.00;;;;;;;11.66;79.54;100584.28;6205283;22;20015;-82
2023/05/11 22:04:59;;;;;;;0.00;0.00;;;;;;;11.68;80.22;100593.06;6203846;22;20032;-80
2023/05/11 22:07:24;;;;;;;0.00;0.00;;;;;;;11.59;79.99;100577.41;6205408;22;20047;-81
2023/05/11 22:09:50;;;;;;;0.00;0.00;;;;;;;11.60;80.51;100590.84;6205591;23;20009;-80
2023/05/11 22:12:15;;;;;;;0.00;0.00;;;;;;;11.59;80.46;100589.19;6201560;23;20117;-78
2023/05/11 22:14:41;;;;;;;0.00;0.00;;;;;;;11.58;80.18;100587.56;6206448;22;20096;-79
2023/05/11 22:17:06;;;;;;;0.00;0.00;;;;;;;11.53;80.48;100584.78;6178017;23;20008;-79
2023/05/11 22:19:32;;;;;;;0.00;0.00;;;;;;;11.65;80.59;100615.53;6206616;23;20001;-81
2023/05/11 22:22:00;;;;;;;0.00;0.00;;;;;;;11.48;80.63;100593.00;6177754;23;20013;-79
2023/05/11 22:24:25;;;;;;;0.00;0.00;;;;;;;11.39;81.01;100578.16;6181982;23;20491;-80
2023/05/11 22:26:52;;;;;;;0.00;0.00;;;;;;;11.44;81.48;100597.38;6204663;23;20075;-80
2023/05/11 22:29:20;;;;;;;0.00;0.00;;;;;;;11.37;81.28;100591.31;6178256;22;20040;-81
2023/05/11 22:31:47;;;;;;;0.00;0.00;;;;;;;11.44;81.40;100600.09;6203773;23;20000;-77
2023/05/11 22:34:15;;;;;;;0.00;0.00;;;;;;;11.50;82.08;100612.72;6204555;23;20007;-78
2023/05/11 22:36:41;;;;;;;0.00;0.00;;;;;;;11.57;81.86;100618.78;6205603;23;20046;-78
2023/05/11 22:39:06;;;;;;;0.00;0.00;;;;;;;11.61;82.18;100608.94;6175802;23;20012;-78
2023/05/11 22:41:32;;;;;;;0.00;0.00;;;;;;;11.69;82.35;100622.09;6177496;22;20103;-80
2023/05/11 22:43:57;;;;;;;0.00;0.00;;;;;;;11.65;82.07;100610.03;6203620;22;20015;-79
2023/05/11 22:46:23;;;;;;;0.00;0.00;;;;;;;11.62;82.54;100616.06;6153300;23;20009;-78
2023/05/11 22:48:53;;;;;;;0.00;0.00;;;;;;;11.46;82.32;100606.13;6154612;23;20009;-80
2023/05/11 22:51:21;;;;;;;0.00;0.00;;;;;;;11.34;82.97;100609.09;6201668;22;20015;-79
2023/05/11 22:53:47;;;;;;;0.00;0.00;;;;;;;11.28;83.14;100621.91;6203805;23;20008;-85
2023/05/11 22:56:12;;;;;;;0.00;0.00;;;;;;;11.14;83.87;100602.44;6181800;22;20096;-83
2023/05/11 22:58:38;;;;;;;0.00;0.00;;;;;;;11.03;84.00;100597.16;6152513;23;20044;-78
2023/05/11 23:01:03;;;;;;;0.00;0.00;;;;;;;11.04;83.96;100620.69;6180002;23;20035;-77
2023/05/11 23:03:29;;;;;;;0.00;0.00;;;;;;;10.97;84.31;100620.94;6177326;23;20435;-77
2023/05/11 23:05:54;;;;;;;0.00;0.00;;;;;;;10.91;84.79;100620.06;6154422;23;20032;-78
2023/05/11 23:08:25;;;;;;;0.00;0.00;;;;;;;10.84;85.26;100616.75;6176651;23;20032;-79
2023/05/11 23:10:51;;;;;;;0.00;0.00;;;;;;;10.83;85.34;100626.88;6180591;22;20019;-77
2023/05/11 23:13:19;;;;;;;0.00;0.00;;;;;;;10.79;85.11;100619.41;6203914;23;20009;-79
2023/05/11 23:15:45;;;;;;;0.00;0.00;;;;;;;10.76;85.48;100622.69;6178172;23;20005;-77
2023/05/11 23:18:10;;;;;;;0.00;0.00;;;;;;;10.79;85.92;100631.22;6202485;22;20811;-77
2023/05/11 23:20:35;;;;;;;0.00;0.00;;;;;;;10.72;85.39;100624.28;6175290;23;20008;-76
2023/05/11 23:23:01;;;;;;;0.00;0.00;;;;;;;10.57;85.70;100616.81;6203760;22;20099;-77
2023/05/11 23:25:26;;;;;;;0.00;0.00;;;;;;;10.52;85.99;100631.25;6150841;23;20005;-76
2023/05/11 23:27:55;;;;;;;0.00;0.00;;;;;;;10.41;86.08;100624.91;6180013;23;20333;-75
2023/05/11 23:30:23;;;;;;;0.00;0.00;;;;;;;10.29;86.69;100622.28;6180055;23;20440;-76
2023/05/11 23:32:48;;;;;;;0.00;0.00;;;;;;;10.22;86.57;100624.41;6205495;23;20000;-76
2023/05/11 23:35:14;;;;;;;0.00;0.00;;;;;;;10.01;87.31;100606.16;6180616;23;20016;-75
2023/05/11 23:37:40;;;;;;;0.00;0.00;;;;;;;10.08;87.43;100632.19;6204385;23;20007;-76
2023/05/11 23:40:09;;;;;;;0.00;0.00;;;;;;;10.02;87.97;100637.88;6180113;22;20659;-77
2023/05/11 23:42:35;;;;;;;0.00;0.00;;;;;;;9.92;87.62;100633.94;6199242;23;20097;-76
2023/05/11 23:45:06;;;;;;;0.00;0.00;;;;;;;9.90;87.84;100641.56;6156371;23;20004;-76
2023/05/11 23:47:32;;;;;;;0.00;0.00;;;;;;;9.76;88.13;100629.38;6178131;23;20083;-76
2023/05/11 23:49:58;;;;;;;0.00;0.00;;;;;;;9.72;88.43;100636.44;6180246;23;20035;-76
2023/05/11 23:52:23;;;;;;;0.00;0.00;;;;;;;9.73;88.86;100640.81;6203260;22;20008;-76